YCV weather

CLOSED Cartierville Airport
Montreal, Quebec, Canada

Public forecast

Using degrees Celsius for public forecast. Weather courtesy of forecast.io.

Closest aviation weather report (METAR) to Cartierville Airport

Closest report is Montreal / Pierre Elliott Trudeau International Airport, 2.9 nm (5.5 km) SSW. Retrieved 2019/10/19 10:00 UTC (40 minutes ago):

CYUL 191000Z 30008KT 15SM FEW050 03/M00 A3002 RMK SC1 SC TR SLP170

Closest aviation forecast (TAF) to Cartierville Airport

Closest forecast is Montreal / Pierre Elliott Trudeau International Airport, 2.9 nm (5.5 km) SSW. Retrieved 2019/10/19 09:42 UTC (58 minutes ago):

TAF CYUL 190838Z 1909/2006 29006KT P6SM SKC BECMG 1912/1914 32008KT FM191800 25008KT P6SM SCT025 BECMG 1922/1924 20007KT FM200300 VRB03KT P6SM SKC PROB30 2003/2006 1SM BR RMK NXT FCST BY 191200Z